sensor_id;sensor_type;location;lat;lon;timestamp;P1;durP1;ratioP1;P2;durP2;ratioP2
73456;SDS011;61691;53.072;6.582;2022-12-07T14:43:12;8.95;;;1.30;;
73456;SDS011;61691;53.072;6.582;2022-12-07T14:45:41;5.57;;;1.10;;
73456;SDS011;61691;53.072;6.582;2022-12-07T14:48:10;5.55;;;1.15;;
73456;SDS011;61691;53.072;6.582;2022-12-07T14:53:15;6.03;;;1.08;;
73456;SDS011;61691;53.072;6.582;2022-12-07T14:55:43;2.38;;;0.82;;
73456;SDS011;61691;53.072;6.582;2022-12-07T14:58:18;7.13;;;1.33;;
73456;SDS011;61691;53.072;6.582;2022-12-07T15:00:44;3.33;;;1.23;;
73456;SDS011;61691;53.072;6.582;2022-12-07T15:03:10;7.20;;;1.25;;
73456;SDS011;61691;53.072;6.582;2022-12-07T15:05:35;8.13;;;1.30;;
73456;SDS011;61691;53.072;6.582;2022-12-07T15:08:02;3.17;;;0.98;;
73456;SDS011;61691;53.072;6.582;2022-12-07T15:10:30;4.55;;;0.90;;
73456;SDS011;61691;53.072;6.582;2022-12-07T15:12:58;6.32;;;1.02;;
73456;SDS011;61691;53.072;6.582;2022-12-07T15:15:42;5.05;;;1.10;;
73456;SDS011;61691;53.072;6.582;2022-12-07T15:18:08;4.22;;;1.23;;
73456;SDS011;61691;53.072;6.582;2022-12-07T15:20:33;5.47;;;1.15;;
73456;SDS011;61691;53.072;6.582;2022-12-07T15:22:58;6.45;;;1.25;;
73456;SDS011;61691;53.072;6.582;2022-12-07T15:26:09;5.25;;;1.02;;
73456;SDS011;61691;53.072;6.582;2022-12-07T15:28:54;5.65;;;1.20;;
73456;SDS011;61691;53.072;6.582;2022-12-07T15:31:38;3.80;;;0.98;;
73456;SDS011;61691;53.072;6.582;2022-12-07T15:36:32;3.63;;;1.02;;
73456;SDS011;61691;53.072;6.582;2022-12-07T15:39:17;3.45;;;0.82;;
73456;SDS011;61691;53.072;6.582;2022-12-07T15:42:01;4.00;;;1.13;;
73456;SDS011;61691;53.072;6.582;2022-12-07T15:45:23;4.13;;;1.20;;
73456;SDS011;61691;53.072;6.582;2022-12-07T15:48:08;2.17;;;0.95;;
73456;SDS011;61691;53.072;6.582;2022-12-07T15:51:14;4.38;;;0.93;;
73456;SDS011;61691;53.072;6.582;2022-12-07T15:54:05;4.82;;;1.05;;
73456;SDS011;61691;53.072;6.582;2022-12-07T15:56:50;2.92;;;1.10;;
73456;SDS011;61691;53.072;6.582;2022-12-07T15:59:36;4.50;;;1.30;;
73456;SDS011;61691;53.072;6.582;2022-12-07T16:02:23;4.22;;;1.20;;
73456;SDS011;61691;53.072;6.582;2022-12-07T16:05:08;4.40;;;0.85;;
73456;SDS011;61691;53.072;6.582;2022-12-07T16:07:54;3.78;;;0.98;;
73456;SDS011;61691;53.072;6.582;2022-12-07T16:10:39;4.80;;;0.85;;
73456;SDS011;61691;53.072;6.582;2022-12-07T16:13:28;6.05;;;1.20;;
73456;SDS011;61691;53.072;6.582;2022-12-07T16:16:14;3.05;;;0.88;;
73456;SDS011;61691;53.072;6.582;2022-12-07T16:19:01;3.92;;;1.17;;
73456;SDS011;61691;53.072;6.582;2022-12-07T16:21:47;4.50;;;1.02;;
73456;SDS011;61691;53.072;6.582;2022-12-07T16:24:32;3.78;;;0.88;;
73456;SDS011;61691;53.072;6.582;2022-12-07T16:27:18;2.60;;;0.80;;
73456;SDS011;61691;53.072;6.582;2022-12-07T16:30:04;2.92;;;0.95;;
73456;SDS011;61691;53.072;6.582;2022-12-07T16:32:49;4.47;;;1.10;;
73456;SDS011;61691;53.072;6.582;2022-12-07T16:35:37;3.03;;;0.93;;
73456;SDS011;61691;53.072;6.582;2022-12-07T16:41:11;5.13;;;1.50;;
73456;SDS011;61691;53.072;6.582;2022-12-07T16:43:56;2.67;;;0.73;;
73456;SDS011;61691;53.072;6.582;2022-12-07T16:46:42;4.45;;;1.20;;
73456;SDS011;61691;53.072;6.582;2022-12-07T16:49:28;4.22;;;0.93;;
73456;SDS011;61691;53.072;6.582;2022-12-07T16:52:13;4.97;;;1.08;;
73456;SDS011;61691;53.072;6.582;2022-12-07T16:55:04;2.53;;;0.90;;
73456;SDS011;61691;53.072;6.582;2022-12-07T16:57:50;3.60;;;1.30;;
73456;SDS011;61691;53.072;6.582;2022-12-07T17:00:36;4.32;;;1.08;;
73456;SDS011;61691;53.072;6.582;2022-12-07T17:03:21;4.25;;;1.20;;
73456;SDS011;61691;53.072;6.582;2022-12-07T17:06:11;4.55;;;1.27;;
73456;SDS011;61691;53.072;6.582;2022-12-07T17:09:00;4.85;;;1.35;;
73456;SDS011;61691;53.072;6.582;2022-12-07T17:11:46;1.50;;;0.63;;
73456;SDS011;61691;53.072;6.582;2022-12-07T17:14:32;3.55;;;1.20;;
73456;SDS011;61691;53.072;6.582;2022-12-07T17:17:36;2.92;;;1.05;;
73456;SDS011;61691;53.072;6.582;2022-12-07T17:20:21;3.47;;;1.20;;
73456;SDS011;61691;53.072;6.582;2022-12-07T17:23:09;5.32;;;1.55;;
73456;SDS011;61691;53.072;6.582;2022-12-07T17:25:54;5.82;;;1.23;;
73456;SDS011;61691;53.072;6.582;2022-12-07T17:28:39;5.60;;;1.30;;
73456;SDS011;61691;53.072;6.582;2022-12-07T17:31:25;5.53;;;1.35;;
73456;SDS011;61691;53.072;6.582;2022-12-07T17:34:12;3.38;;;1.17;;
73456;SDS011;61691;53.072;6.582;2022-12-07T17:36:58;6.25;;;1.55;;
73456;SDS011;61691;53.072;6.582;2022-12-07T17:39:44;5.75;;;1.55;;
73456;SDS011;61691;53.072;6.582;2022-12-07T17:42:29;5.70;;;1.38;;
73456;SDS011;61691;53.072;6.582;2022-12-07T17:45:20;4.63;;;1.40;;
73456;SDS011;61691;53.072;6.582;2022-12-07T17:48:05;6.28;;;1.45;;
73456;SDS011;61691;53.072;6.582;2022-12-07T17:50:51;6.53;;;1.50;;
73456;SDS011;61691;53.072;6.582;2022-12-07T17:53:55;3.35;;;1.10;;
73456;SDS011;61691;53.072;6.582;2022-12-07T17:56:41;6.78;;;1.67;;
73456;SDS011;61691;53.072;6.582;2022-12-07T17:59:26;6.28;;;1.40;;
73456;SDS011;61691;53.072;6.582;2022-12-07T18:02:12;5.57;;;1.55;;
73456;SDS011;61691;53.072;6.582;2022-12-07T18:04:57;4.82;;;1.33;;
73456;SDS011;61691;53.072;6.582;2022-12-07T18:07:43;5.00;;;1.75;;
73456;SDS011;61691;53.072;6.582;2022-12-07T18:10:28;8.95;;;1.80;;
73456;SDS011;61691;53.072;6.582;2022-12-07T18:13:14;6.10;;;1.60;;
73456;SDS011;61691;53.072;6.582;2022-12-07T18:16:19;5.70;;;1.33;;
73456;SDS011;61691;53.072;6.582;2022-12-07T18:19:08;6.28;;;1.50;;
73456;SDS011;61691;53.072;6.582;2022-12-07T18:21:57;5.53;;;1.50;;
73456;SDS011;61691;53.072;6.582;2022-12-07T18:24:42;5.80;;;1.48;;
73456;SDS011;61691;53.072;6.582;2022-12-07T18:27:28;4.68;;;1.33;;
73456;SDS011;61691;53.072;6.582;2022-12-07T18:30:14;6.63;;;1.45;;
73456;SDS011;61691;53.072;6.582;2022-12-07T18:32:59;4.18;;;1.30;;
73456;SDS011;61691;53.072;6.582;2022-12-07T18:35:45;6.93;;;1.50;;
73456;SDS011;61691;53.072;6.582;2022-12-07T18:38:31;4.20;;;1.33;;
73456;SDS011;61691;53.072;6.582;2022-12-07T18:41:17;5.68;;;1.35;;
73456;SDS011;61691;53.072;6.582;2022-12-07T18:44:03;5.13;;;1.60;;
73456;SDS011;61691;53.072;6.582;2022-12-07T18:46:49;5.40;;;1.40;;
73456;SDS011;61691;53.072;6.582;2022-12-07T18:49:36;5.90;;;1.40;;
73456;SDS011;61691;53.072;6.582;2022-12-07T18:52:21;4.70;;;1.20;;
73456;SDS011;61691;53.072;6.582;2022-12-07T18:55:06;2.45;;;1.13;;
73456;SDS011;61691;53.072;6.582;2022-12-07T18:57:53;5.95;;;1.55;;
73456;SDS011;61691;53.072;6.582;2022-12-07T19:00:39;6.07;;;1.75;;
73456;SDS011;61691;53.072;6.582;2022-12-07T19:03:24;5.75;;;1.50;;
73456;SDS011;61691;53.072;6.582;2022-12-07T19:06:17;5.45;;;1.45;;
73456;SDS011;61691;53.072;6.582;2022-12-07T19:09:02;5.53;;;1.40;;
73456;SDS011;61691;53.072;6.582;2022-12-07T19:11:48;4.85;;;1.40;;
73456;SDS011;61691;53.072;6.582;2022-12-07T19:14:34;9.63;;;1.98;;
73456;SDS011;61691;53.072;6.582;2022-12-07T19:17:21;7.38;;;1.50;;
73456;SDS011;61691;53.072;6.582;2022-12-07T19:20:09;5.00;;;1.50;;
73456;SDS011;61691;53.072;6.582;2022-12-07T19:22:57;4.35;;;1.38;;
73456;SDS011;61691;53.072;6.582;2022-12-07T19:25:43;4.88;;;1.30;;
73456;SDS011;61691;53.072;6.582;2022-12-07T19:28:28;5.45;;;1.50;;
73456;SDS011;61691;53.072;6.582;2022-12-07T19:31:13;6.63;;;1.80;;
73456;SDS011;61691;53.072;6.582;2022-12-07T19:33:59;3.70;;;1.40;;
73456;SDS011;61691;53.072;6.582;2022-12-07T19:36:45;5.13;;;1.33;;
73456;SDS011;61691;53.072;6.582;2022-12-07T19:39:30;5.05;;;1.50;;
73456;SDS011;61691;53.072;6.582;2022-12-07T19:42:16;7.28;;;1.50;;
73456;SDS011;61691;53.072;6.582;2022-12-07T19:45:02;4.75;;;1.27;;
73456;SDS011;61691;53.072;6.582;2022-12-07T19:47:47;2.70;;;1.20;;
73456;SDS011;61691;53.072;6.582;2022-12-07T19:50:33;8.13;;;1.48;;
73456;SDS011;61691;53.072;6.582;2022-12-07T19:53:18;6.35;;;1.40;;
73456;SDS011;61691;53.072;6.582;2022-12-07T19:56:04;4.78;;;1.30;;
73456;SDS011;61691;53.072;6.582;2022-12-07T19:58:50;4.63;;;1.38;;
73456;SDS011;61691;53.072;6.582;2022-12-07T20:01:35;5.22;;;1.45;;
73456;SDS011;61691;53.072;6.582;2022-12-07T20:04:23;5.30;;;1.23;;
73456;SDS011;61691;53.072;6.582;2022-12-07T20:07:10;5.25;;;1.20;;
73456;SDS011;61691;53.072;6.582;2022-12-07T20:09:55;4.00;;;1.25;;
73456;SDS011;61691;53.072;6.582;2022-12-07T20:12:40;6.18;;;1.42;;
73456;SDS011;61691;53.072;6.582;2022-12-07T20:15:52;4.28;;;1.23;;
73456;SDS011;61691;53.072;6.582;2022-12-07T20:18:58;2.60;;;1.05;;
73456;SDS011;61691;53.072;6.582;2022-12-07T20:21:44;4.38;;;1.30;;
73456;SDS011;61691;53.072;6.582;2022-12-07T20:24:29;4.03;;;1.13;;
73456;SDS011;61691;53.072;6.582;2022-12-07T20:27:18;5.32;;;1.40;;
73456;SDS011;61691;53.072;6.582;2022-12-07T20:30:03;3.83;;;1.10;;
73456;SDS011;61691;53.072;6.582;2022-12-07T20:32:49;3.47;;;1.25;;
73456;SDS011;61691;53.072;6.582;2022-12-07T20:35:34;3.90;;;1.33;;
73456;SDS011;61691;53.072;6.582;2022-12-07T20:38:20;3.33;;;1.20;;
73456;SDS011;61691;53.072;6.582;2022-12-07T20:41:06;4.15;;;1.17;;
73456;SDS011;61691;53.072;6.582;2022-12-07T20:44:13;4.18;;;1.15;;
73456;SDS011;61691;53.072;6.582;2022-12-07T20:47:00;3.13;;;1.42;;
73456;SDS011;61691;53.072;6.582;2022-12-07T20:49:45;4.28;;;1.23;;
73456;SDS011;61691;53.072;6.582;2022-12-07T20:52:30;5.20;;;1.63;;
73456;SDS011;61691;53.072;6.582;2022-12-07T20:55:16;4.63;;;1.23;;
73456;SDS011;61691;53.072;6.582;2022-12-07T20:58:01;6.20;;;1.40;;
73456;SDS011;61691;53.072;6.582;2022-12-07T21:00:46;4.78;;;1.50;;
73456;SDS011;61691;53.072;6.582;2022-12-07T21:03:31;3.88;;;1.20;;
73456;SDS011;61691;53.072;6.582;2022-12-07T21:06:17;3.50;;;1.13;;
73456;SDS011;61691;53.072;6.582;2022-12-07T21:09:02;6.78;;;1.70;;
73456;SDS011;61691;53.072;6.582;2022-12-07T21:11:48;3.30;;;1.00;;
73456;SDS011;61691;53.072;6.582;2022-12-07T21:14:33;4.70;;;1.40;;
73456;SDS011;61691;53.072;6.582;2022-12-07T21:17:19;4.35;;;1.50;;
73456;SDS011;61691;53.072;6.582;2022-12-07T21:20:04;4.65;;;1.52;;
73456;SDS011;61691;53.072;6.582;2022-12-07T21:22:51;5.75;;;1.33;;
73456;SDS011;61691;53.072;6.582;2022-12-07T21:25:36;5.03;;;1.30;;
73456;SDS011;61691;53.072;6.582;2022-12-07T21:28:22;4.72;;;1.10;;
73456;SDS011;61691;53.072;6.582;2022-12-07T21:31:07;5.32;;;1.60;;
73456;SDS011;61691;53.072;6.582;2022-12-07T21:33:57;8.27;;;1.95;;
73456;SDS011;61691;53.072;6.582;2022-12-07T21:36:45;10.07;;;1.95;;
73456;SDS011;61691;53.072;6.582;2022-12-07T21:39:31;11.45;;;2.17;;
73456;SDS011;61691;53.072;6.582;2022-12-07T21:42:16;11.88;;;2.45;;
73456;SDS011;61691;53.072;6.582;2022-12-07T21:45:01;9.88;;;1.98;;
73456;SDS011;61691;53.072;6.582;2022-12-07T21:47:47;13.48;;;2.38;;
73456;SDS011;61691;53.072;6.582;2022-12-07T21:50:33;14.00;;;2.83;;
73456;SDS011;61691;53.072;6.582;2022-12-07T21:53:21;12.52;;;2.50;;
73456;SDS011;61691;53.072;6.582;2022-12-07T21:56:14;13.00;;;2.60;;
73456;SDS011;61691;53.072;6.582;2022-12-07T21:59:02;16.88;;;3.00;;
73456;SDS011;61691;53.072;6.582;2022-12-07T22:01:52;14.18;;;2.88;;
73456;SDS011;61691;53.072;6.582;2022-12-07T22:04:37;13.73;;;2.63;;
73456;SDS011;61691;53.072;6.582;2022-12-07T22:07:23;13.35;;;2.97;;
73456;SDS011;61691;53.072;6.582;2022-12-07T22:10:08;16.05;;;3.35;;
73456;SDS011;61691;53.072;6.582;2022-12-07T22:12:57;15.13;;;2.55;;
73456;SDS011;61691;53.072;6.582;2022-12-07T22:15:43;16.45;;;3.00;;
73456;SDS011;61691;53.072;6.582;2022-12-07T22:18:28;14.98;;;3.17;;
73456;SDS011;61691;53.072;6.582;2022-12-07T22:21:14;15.65;;;2.72;;
73456;SDS011;61691;53.072;6.582;2022-12-07T22:23:59;14.32;;;2.45;;
73456;SDS011;61691;53.072;6.582;2022-12-07T22:26:45;17.30;;;3.67;;
73456;SDS011;61691;53.072;6.582;2022-12-07T22:29:30;15.95;;;2.97;;
73456;SDS011;61691;53.072;6.582;2022-12-07T22:32:16;14.73;;;3.00;;
73456;SDS011;61691;53.072;6.582;2022-12-07T22:35:21;17.88;;;3.20;;
73456;SDS011;61691;53.072;6.582;2022-12-07T22:38:07;13.40;;;2.78;;
73456;SDS011;61691;53.072;6.582;2022-12-07T22:40:58;15.63;;;3.22;;
73456;SDS011;61691;53.072;6.582;2022-12-07T22:43:44;14.57;;;2.80;;
73456;SDS011;61691;53.072;6.582;2022-12-07T22:46:29;13.55;;;2.60;;
73456;SDS011;61691;53.072;6.582;2022-12-07T22:49:15;15.57;;;3.20;;
73456;SDS011;61691;53.072;6.582;2022-12-07T22:52:00;15.27;;;2.97;;
73456;SDS011;61691;53.072;6.582;2022-12-07T22:54:45;15.35;;;2.95;;
73456;SDS011;61691;53.072;6.582;2022-12-07T22:57:31;16.00;;;2.72;;
73456;SDS011;61691;53.072;6.582;2022-12-07T23:00:19;13.43;;;2.55;;
73456;SDS011;61691;53.072;6.582;2022-12-07T23:03:05;13.73;;;2.80;;
73456;SDS011;61691;53.072;6.582;2022-12-07T23:05:50;13.07;;;2.50;;
73456;SDS011;61691;53.072;6.582;2022-12-07T23:08:36;17.95;;;3.38;;
73456;SDS011;61691;53.072;6.582;2022-12-07T23:11:24;15.95;;;2.97;;
73456;SDS011;61691;53.072;6.582;2022-12-07T23:14:32;12.90;;;2.53;;
73456;SDS011;61691;53.072;6.582;2022-12-07T23:17:18;15.05;;;3.08;;
73456;SDS011;61691;53.072;6.582;2022-12-07T23:20:04;14.73;;;2.75;;
73456;SDS011;61691;53.072;6.582;2022-12-07T23:22:50;12.10;;;2.53;;
73456;SDS011;61691;53.072;6.582;2022-12-07T23:25:35;11.30;;;2.35;;
73456;SDS011;61691;53.072;6.582;2022-12-07T23:28:20;13.50;;;2.40;;
73456;SDS011;61691;53.072;6.582;2022-12-07T23:31:13;11.40;;;2.40;;
73456;SDS011;61691;53.072;6.582;2022-12-07T23:34:00;11.45;;;2.13;;
73456;SDS011;61691;53.072;6.582;2022-12-07T23:36:46;12.57;;;2.55;;
73456;SDS011;61691;53.072;6.582;2022-12-07T23:39:31;12.35;;;2.70;;
73456;SDS011;61691;53.072;6.582;2022-12-07T23:42:17;14.20;;;2.70;;
73456;SDS011;61691;53.072;6.582;2022-12-07T23:45:02;12.63;;;2.78;;
73456;SDS011;61691;53.072;6.582;2022-12-07T23:47:48;13.70;;;2.58;;
73456;SDS011;61691;53.072;6.582;2022-12-07T23:50:33;11.18;;;2.28;;
73456;SDS011;61691;53.072;6.582;2022-12-07T23:53:18;9.88;;;2.30;;
73456;SDS011;61691;53.072;6.582;2022-12-07T23:56:04;12.73;;;2.42;;
73456;SDS011;61691;53.072;6.582;2022-12-07T23:58:51;10.18;;;2.22;;
